sensor_id;sensor_type;location;lat;lon;timestamp;pressure;altitude;pressure_sealevel;temperature
14023;BMP180;7086;48.116;11.580;2023-04-15T00:01:49;94231.00;;;10.50
14023;BMP180;7086;48.116;11.580;2023-04-15T00:04:15;94227.00;;;10.50
14023;BMP180;7086;48.116;11.580;2023-04-15T00:06:49;94228.00;;;10.50
14023;BMP180;7086;48.116;11.580;2023-04-15T00:09:17;94223.00;;;10.50
14023;BMP180;7086;48.116;11.580;2023-04-15T00:11:44;94212.00;;;10.50
14023;BMP180;7086;48.116;11.580;2023-04-15T00:14:12;94214.00;;;10.50
14023;BMP180;7086;48.116;11.580;2023-04-15T00:16:39;94216.00;;;10.50
14023;BMP180;7086;48.116;11.580;2023-04-15T00:19:05;94224.00;;;10.50
14023;BMP180;7086;48.116;11.580;2023-04-15T00:21:32;94218.00;;;10.50
14023;BMP180;7086;48.116;11.580;2023-04-15T00:23:59;94208.00;;;10.50
14023;BMP180;7086;48.116;11.580;2023-04-15T00:26:28;94210.00;;;10.50
14023;BMP180;7086;48.116;11.580;2023-04-15T00:28:55;94196.00;;;10.50
14023;BMP180;7086;48.116;11.580;2023-04-15T00:31:22;94208.00;;;10.50
14023;BMP180;7086;48.116;11.580;2023-04-15T00:33:49;94199.00;;;10.50
14023;BMP180;7086;48.116;11.580;2023-04-15T00:36:16;94206.00;;;10.50
14023;BMP180;7086;48.116;11.580;2023-04-15T00:38:43;94202.00;;;10.50
14023;BMP180;7086;48.116;11.580;2023-04-15T00:41:10;94200.00;;;10.50
14023;BMP180;7086;48.116;11.580;2023-04-15T00:43:38;94197.00;;;10.50
14023;BMP180;7086;48.116;11.580;2023-04-15T00:46:06;94190.00;;;10.50
14023;BMP180;7086;48.116;11.580;2023-04-15T00:48:34;94185.00;;;10.50
14023;BMP180;7086;48.116;11.580;2023-04-15T00:51:01;94186.00;;;10.40
14023;BMP180;7086;48.116;11.580;2023-04-15T00:53:28;94187.00;;;10.50
14023;BMP180;7086;48.116;11.580;2023-04-15T00:55:55;94187.00;;;10.50
14023;BMP180;7086;48.116;11.580;2023-04-15T00:58:22;94194.00;;;10.50
14023;BMP180;7086;48.116;11.580;2023-04-15T01:00:51;94199.00;;;10.50
14023;BMP180;7086;48.116;11.580;2023-04-15T01:03:18;94192.00;;;10.50
14023;BMP180;7086;48.116;11.580;2023-04-15T01:05:45;94196.00;;;10.50
14023;BMP180;7086;48.116;11.580;2023-04-15T01:08:13;94192.00;;;10.50
14023;BMP180;7086;48.116;11.580;2023-04-15T01:10:39;94186.00;;;10.60
14023;BMP180;7086;48.116;11.580;2023-04-15T01:13:07;94198.00;;;10.50
14023;BMP180;7086;48.116;11.580;2023-04-15T01:15:34;94196.00;;;10.60
14023;BMP180;7086;48.116;11.580;2023-04-15T01:18:03;94191.00;;;10.50
14023;BMP180;7086;48.116;11.580;2023-04-15T01:20:30;94199.00;;;10.60
14023;BMP180;7086;48.116;11.580;2023-04-15T01:22:57;94191.00;;;10.50
14023;BMP180;7086;48.116;11.580;2023-04-15T01:25:30;94196.00;;;10.60
14023;BMP180;7086;48.116;11.580;2023-04-15T01:27:58;94172.00;;;10.50
14023;BMP180;7086;48.116;11.580;2023-04-15T01:30:25;94215.00;;;10.60
14023;BMP180;7086;48.116;11.580;2023-04-15T01:32:52;94196.00;;;10.60
14023;BMP180;7086;48.116;11.580;2023-04-15T01:35:19;94193.00;;;10.60
14023;BMP180;7086;48.116;11.580;2023-04-15T01:37:47;94194.00;;;10.60
14023;BMP180;7086;48.116;11.580;2023-04-15T01:40:14;94198.00;;;10.60
14023;BMP180;7086;48.116;11.580;2023-04-15T01:42:42;94196.00;;;10.60
14023;BMP180;7086;48.116;11.580;2023-04-15T01:45:10;94182.00;;;10.60
14023;BMP180;7086;48.116;11.580;2023-04-15T01:47:37;94171.00;;;10.60
14023;BMP180;7086;48.116;11.580;2023-04-15T01:50:05;94187.00;;;10.60
14023;BMP180;7086;48.116;11.580;2023-04-15T01:52:32;94193.00;;;10.60
14023;BMP180;7086;48.116;11.580;2023-04-15T01:54:59;94192.00;;;10.60
14023;BMP180;7086;48.116;11.580;2023-04-15T01:57:26;94188.00;;;10.60
14023;BMP180;7086;48.116;11.580;2023-04-15T01:59:54;94191.00;;;10.60
14023;BMP180;7086;48.116;11.580;2023-04-15T02:02:21;94181.00;;;10.60
14023;BMP180;7086;48.116;11.580;2023-04-15T02:04:48;94194.00;;;10.60
14023;BMP180;7086;48.116;11.580;2023-04-15T02:07:15;94182.00;;;10.60
14023;BMP180;7086;48.116;11.580;2023-04-15T02:09:41;94195.00;;;10.60
14023;BMP180;7086;48.116;11.580;2023-04-15T02:12:10;94195.00;;;10.40
14023;BMP180;7086;48.116;11.580;2023-04-15T02:14:37;94193.00;;;10.60
14023;BMP180;7086;48.116;11.580;2023-04-15T02:17:06;94197.00;;;10.50
14023;BMP180;7086;48.116;11.580;2023-04-15T02:19:33;94200.00;;;10.60
14023;BMP180;7086;48.116;11.580;2023-04-15T02:22:00;94172.00;;;10.50
14023;BMP180;7086;48.116;11.580;2023-04-15T02:24:27;94202.00;;;10.40
14023;BMP180;7086;48.116;11.580;2023-04-15T02:26:54;94195.00;;;10.50
14023;BMP180;7086;48.116;11.580;2023-04-15T02:29:21;94204.00;;;10.50
14023;BMP180;7086;48.116;11.580;2023-04-15T02:31:48;94187.00;;;10.50
14023;BMP180;7086;48.116;11.580;2023-04-15T02:34:16;94186.00;;;10.50
14023;BMP180;7086;48.116;11.580;2023-04-15T02:36:43;94195.00;;;10.50
14023;BMP180;7086;48.116;11.580;2023-04-15T02:39:11;94167.00;;;10.50
14023;BMP180;7086;48.116;11.580;2023-04-15T02:41:41;94151.00;;;10.50
14023;BMP180;7086;48.116;11.580;2023-04-15T02:44:08;94148.00;;;10.50
14023;BMP180;7086;48.116;11.580;2023-04-15T02:46:37;94172.00;;;10.50
14023;BMP180;7086;48.116;11.580;2023-04-15T02:49:05;94186.00;;;10.50
14023;BMP180;7086;48.116;11.580;2023-04-15T02:51:34;94177.00;;;10.50
14023;BMP180;7086;48.116;11.580;2023-04-15T02:54:01;94189.00;;;10.50
14023;BMP180;7086;48.116;11.580;2023-04-15T02:56:28;94098.00;;;10.50
14023;BMP180;7086;48.116;11.580;2023-04-15T02:58:56;94181.00;;;10.50
14023;BMP180;7086;48.116;11.580;2023-04-15T03:01:22;94169.00;;;10.60
14023;BMP180;7086;48.116;11.580;2023-04-15T03:03:50;94156.00;;;10.60
14023;BMP180;7086;48.116;11.580;2023-04-15T03:06:17;94170.00;;;10.50
14023;BMP180;7086;48.116;11.580;2023-04-15T03:08:45;94165.00;;;10.60
14023;BMP180;7086;48.116;11.580;2023-04-15T03:11:14;94184.00;;;10.60
14023;BMP180;7086;48.116;11.580;2023-04-15T03:13:41;94184.00;;;10.60
14023;BMP180;7086;48.116;11.580;2023-04-15T03:16:08;94186.00;;;10.60
14023;BMP180;7086;48.116;11.580;2023-04-15T03:18:35;94195.00;;;10.60
14023;BMP180;7086;48.116;11.580;2023-04-15T03:21:03;94198.00;;;10.60
14023;BMP180;7086;48.116;11.580;2023-04-15T03:23:31;94168.00;;;10.60
14023;BMP180;7086;48.116;11.580;2023-04-15T03:26:00;94151.00;;;10.60
14023;BMP180;7086;48.116;11.580;2023-04-15T03:28:27;94197.00;;;10.60
14023;BMP180;7086;48.116;11.580;2023-04-15T03:30:55;94202.00;;;10.60
14023;BMP180;7086;48.116;11.580;2023-04-15T03:33:21;94210.00;;;10.60
14023;BMP180;7086;48.116;11.580;2023-04-15T03:35:49;94187.00;;;10.60
14023;BMP180;7086;48.116;11.580;2023-04-15T03:38:16;94186.00;;;10.70
14023;BMP180;7086;48.116;11.580;2023-04-15T03:40:43;94181.00;;;10.70
14023;BMP180;7086;48.116;11.580;2023-04-15T03:43:11;94179.00;;;10.70
14023;BMP180;7086;48.116;11.580;2023-04-15T03:45:38;94197.00;;;10.70
14023;BMP180;7086;48.116;11.580;2023-04-15T03:48:04;94198.00;;;10.70
14023;BMP180;7086;48.116;11.580;2023-04-15T03:50:31;94192.00;;;10.70
14023;BMP180;7086;48.116;11.580;2023-04-15T03:52:58;94201.00;;;10.70
14023;BMP180;7086;48.116;11.580;2023-04-15T03:55:25;94197.00;;;10.80
14023;BMP180;7086;48.116;11.580;2023-04-15T03:57:52;94204.00;;;10.80
14023;BMP180;7086;48.116;11.580;2023-04-15T04:00:20;94199.00;;;10.80
14023;BMP180;7086;48.116;11.580;2023-04-15T04:02:47;94198.00;;;10.80
14023;BMP180;7086;48.116;11.580;2023-04-15T04:05:13;94205.00;;;10.80
14023;BMP180;7086;48.116;11.580;2023-04-15T04:07:40;94206.00;;;10.80
14023;BMP180;7086;48.116;11.580;2023-04-15T04:10:07;94205.00;;;10.80
14023;BMP180;7086;48.116;11.580;2023-04-15T04:12:34;94209.00;;;10.80
14023;BMP180;7086;48.116;11.580;2023-04-15T04:15:01;94200.00;;;10.80
14023;BMP180;7086;48.116;11.580;2023-04-15T04:17:29;94209.00;;;10.80
14023;BMP180;7086;48.116;11.580;2023-04-15T04:19:56;94214.00;;;10.90
14023;BMP180;7086;48.116;11.580;2023-04-15T04:22:23;94206.00;;;10.90
14023;BMP180;7086;48.116;11.580;2023-04-15T04:24:50;94215.00;;;10.90
14023;BMP180;7086;48.116;11.580;2023-04-15T04:27:17;94214.00;;;10.90
14023;BMP180;7086;48.116;11.580;2023-04-15T04:29:43;94210.00;;;10.90
14023;BMP180;7086;48.116;11.580;2023-04-15T04:32:12;94203.00;;;10.90
14023;BMP180;7086;48.116;11.580;2023-04-15T04:34:40;94211.00;;;10.90
14023;BMP180;7086;48.116;11.580;2023-04-15T04:37:07;94206.00;;;10.90
14023;BMP180;7086;48.116;11.580;2023-04-15T04:39:33;94208.00;;;10.80
14023;BMP180;7086;48.116;11.580;2023-04-15T04:42:00;94198.00;;;10.90
14023;BMP180;7086;48.116;11.580;2023-04-15T04:44:27;94215.00;;;10.90
14023;BMP180;7086;48.116;11.580;2023-04-15T04:46:54;94208.00;;;10.80
14023;BMP180;7086;48.116;11.580;2023-04-15T04:49:21;94208.00;;;10.80
14023;BMP180;7086;48.116;11.580;2023-04-15T04:51:49;94218.00;;;10.80
14023;BMP180;7086;48.116;11.580;2023-04-15T04:54:16;94213.00;;;10.90
14023;BMP180;7086;48.116;11.580;2023-04-15T04:56:43;94212.00;;;10.90
14023;BMP180;7086;48.116;11.580;2023-04-15T04:59:10;94201.00;;;10.90
14023;BMP180;7086;48.116;11.580;2023-04-15T05:01:37;94212.00;;;10.90
14023;BMP180;7086;48.116;11.580;2023-04-15T05:04:04;94192.00;;;10.90
14023;BMP180;7086;48.116;11.580;2023-04-15T05:06:32;94220.00;;;10.90
14023;BMP180;7086;48.116;11.580;2023-04-15T05:09:02;94191.00;;;10.90
14023;BMP180;7086;48.116;11.580;2023-04-15T05:11:29;94207.00;;;10.90
14023;BMP180;7086;48.116;11.580;2023-04-15T05:13:56;94200.00;;;11.00
14023;BMP180;7086;48.116;11.580;2023-04-15T05:16:24;94212.00;;;11.00
14023;BMP180;7086;48.116;11.580;2023-04-15T05:18:51;94214.00;;;11.00
14023;BMP180;7086;48.116;11.580;2023-04-15T05:21:18;94210.00;;;11.00
14023;BMP180;7086;48.116;11.580;2023-04-15T05:23:45;94168.00;;;11.00
14023;BMP180;7086;48.116;11.580;2023-04-15T05:26:13;94207.00;;;11.10
14023;BMP180;7086;48.116;11.580;2023-04-15T05:28:40;94204.00;;;11.10
14023;BMP180;7086;48.116;11.580;2023-04-15T05:31:07;94214.00;;;11.10
14023;BMP180;7086;48.116;11.580;2023-04-15T05:33:34;94165.00;;;11.10
14023;BMP180;7086;48.116;11.580;2023-04-15T05:36:01;94209.00;;;11.10
14023;BMP180;7086;48.116;11.580;2023-04-15T05:38:27;94193.00;;;11.10
14023;BMP180;7086;48.116;11.580;2023-04-15T05:40:54;94156.00;;;11.20
14023;BMP180;7086;48.116;11.580;2023-04-15T05:43:23;94177.00;;;11.20
14023;BMP180;7086;48.116;11.580;2023-04-15T05:45:49;94214.00;;;11.20
14023;BMP180;7086;48.116;11.580;2023-04-15T05:48:16;94221.00;;;11.30
14023;BMP180;7086;48.116;11.580;2023-04-15T05:50:43;94195.00;;;11.30
14023;BMP180;7086;48.116;11.580;2023-04-15T05:53:10;94214.00;;;11.30
14023;BMP180;7086;48.116;11.580;2023-04-15T05:55:37;94216.00;;;11.30
14023;BMP180;7086;48.116;11.580;2023-04-15T05:58:04;94213.00;;;11.30
14023;BMP180;7086;48.116;11.580;2023-04-15T06:00:33;94214.00;;;11.40
14023;BMP180;7086;48.116;11.580;2023-04-15T06:03:01;94221.00;;;11.40
14023;BMP180;7086;48.116;11.580;2023-04-15T06:05:27;94213.00;;;11.40
14023;BMP180;7086;48.116;11.580;2023-04-15T06:07:54;94142.00;;;11.40
14023;BMP180;7086;48.116;11.580;2023-04-15T06:10:22;94215.00;;;11.40
14023;BMP180;7086;48.116;11.580;2023-04-15T06:12:48;94217.00;;;11.40
14023;BMP180;7086;48.116;11.580;2023-04-15T06:15:15;94215.00;;;11.40
14023;BMP180;7086;48.116;11.580;2023-04-15T06:17:43;94218.00;;;11.40
14023;BMP180;7086;48.116;11.580;2023-04-15T06:20:11;94207.00;;;11.50
14023;BMP180;7086;48.116;11.580;2023-04-15T06:22:38;94195.00;;;11.50
14023;BMP180;7086;48.116;11.580;2023-04-15T06:25:06;94186.00;;;11.50
14023;BMP180;7086;48.116;11.580;2023-04-15T06:27:33;94198.00;;;11.60
14023;BMP180;7086;48.116;11.580;2023-04-15T06:30:00;94222.00;;;11.60
14023;BMP180;7086;48.116;11.580;2023-04-15T06:32:27;94208.00;;;11.60
14023;BMP180;7086;48.116;11.580;2023-04-15T06:34:55;94214.00;;;11.70
14023;BMP180;7086;48.116;11.580;2023-04-15T06:37:22;94217.00;;;11.80
14023;BMP180;7086;48.116;11.580;2023-04-15T06:39:49;94206.00;;;11.80
14023;BMP180;7086;48.116;11.580;2023-04-15T06:42:16;94221.00;;;11.80
14023;BMP180;7086;48.116;11.580;2023-04-15T06:44:43;94231.00;;;11.90
14023;BMP180;7086;48.116;11.580;2023-04-15T06:47:10;94227.00;;;12.00
14023;BMP180;7086;48.116;11.580;2023-04-15T06:49:39;94194.00;;;12.10
14023;BMP180;7086;48.116;11.580;2023-04-15T06:52:07;94228.00;;;12.20
14023;BMP180;7086;48.116;11.580;2023-04-15T06:54:34;94227.00;;;12.20
14023;BMP180;7086;48.116;11.580;2023-04-15T06:57:01;94231.00;;;12.30
14023;BMP180;7086;48.116;11.580;2023-04-15T06:59:28;94223.00;;;12.40
14023;BMP180;7086;48.116;11.580;2023-04-15T07:01:54;94230.00;;;12.40
14023;BMP180;7086;48.116;11.580;2023-04-15T07:04:21;94198.00;;;12.50
14023;BMP180;7086;48.116;11.580;2023-04-15T07:06:48;94229.00;;;12.60
14023;BMP180;7086;48.116;11.580;2023-04-15T07:09:17;94233.00;;;12.70
14023;BMP180;7086;48.116;11.580;2023-04-15T07:11:44;94238.00;;;12.80
14023;BMP180;7086;48.116;11.580;2023-04-15T07:14:11;94226.00;;;12.90
14023;BMP180;7086;48.116;11.580;2023-04-15T07:16:37;94209.00;;;13.00
14023;BMP180;7086;48.116;11.580;2023-04-15T07:19:04;94226.00;;;13.10
14023;BMP180;7086;48.116;11.580;2023-04-15T07:21:31;94225.00;;;13.40
14023;BMP180;7086;48.116;11.580;2023-04-15T07:23:58;94233.00;;;13.60
14023;BMP180;7086;48.116;11.580;2023-04-15T07:26:26;94235.00;;;13.80
14023;BMP180;7086;48.116;11.580;2023-04-15T07:28:53;94206.00;;;14.00
14023;BMP180;7086;48.116;11.580;2023-04-15T07:31:20;94238.00;;;14.20
14023;BMP180;7086;48.116;11.580;2023-04-15T07:33:47;94240.00;;;14.40
14023;BMP180;7086;48.116;11.580;2023-04-15T07:36:14;94205.00;;;14.60
14023;BMP180;7086;48.116;11.580;2023-04-15T07:38:41;94236.00;;;14.80
14023;BMP180;7086;48.116;11.580;2023-04-15T07:41:07;94213.00;;;15.00
14023;BMP180;7086;48.116;11.580;2023-04-15T07:43:36;94232.00;;;15.30
14023;BMP180;7086;48.116;11.580;2023-04-15T07:46:03;94240.00;;;15.50
14023;BMP180;7086;48.116;11.580;2023-04-15T07:48:31;94240.00;;;15.60
14023;BMP180;7086;48.116;11.580;2023-04-15T07:50:58;94235.00;;;15.70
14023;BMP180;7086;48.116;11.580;2023-04-15T07:53:25;94249.00;;;15.80
14023;BMP180;7086;48.116;11.580;2023-04-15T07:55:51;94249.00;;;15.90
14023;BMP180;7086;48.116;11.580;2023-04-15T07:58:18;94246.00;;;16.20
14023;BMP180;7086;48.116;11.580;2023-04-15T08:00:46;94244.00;;;16.50
14023;BMP180;7086;48.116;11.580;2023-04-15T08:03:13;94231.00;;;16.80
14023;BMP180;7086;48.116;11.580;2023-04-15T08:05:40;94236.00;;;17.10
14023;BMP180;7086;48.116;11.580;2023-04-15T08:08:07;94228.00;;;17.50
14023;BMP180;7086;48.116;11.580;2023-04-15T08:10:34;94236.00;;;17.90
14023;BMP180;7086;48.116;11.580;2023-04-15T08:13:01;94220.00;;;18.30
14023;BMP180;7086;48.116;11.580;2023-04-15T08:15:28;94166.00;;;18.60
14023;BMP180;7086;48.116;11.580;2023-04-15T08:17:58;94225.00;;;18.90
14023;BMP180;7086;48.116;11.580;2023-04-15T08:20:26;94221.00;;;19.20
14023;BMP180;7086;48.116;11.580;2023-04-15T08:22:53;94217.00;;;19.40
14023;BMP180;7086;48.116;11.580;2023-04-15T08:25:19;94212.00;;;19.60
14023;BMP180;7086;48.116;11.580;2023-04-15T08:27:46;94225.00;;;19.70
14023;BMP180;7086;48.116;11.580;2023-04-15T08:30:13;94232.00;;;19.80
14023;BMP180;7086;48.116;11.580;2023-04-15T08:32:41;94231.00;;;19.80
14023;BMP180;7086;48.116;11.580;2023-04-15T08:35:09;94229.00;;;19.90
14023;BMP180;7086;48.116;11.580;2023-04-15T08:37:36;94232.00;;;19.90
14023;BMP180;7086;48.116;11.580;2023-04-15T08:40:04;94235.00;;;19.90
14023;BMP180;7086;48.116;11.580;2023-04-15T08:42:36;94239.00;;;19.80
14023;BMP180;7086;48.116;11.580;2023-04-15T08:45:04;94209.00;;;19.50
14023;BMP180;7086;48.116;11.580;2023-04-15T08:47:32;94223.00;;;19.30
14023;BMP180;7086;48.116;11.580;2023-04-15T08:50:02;94211.00;;;19.10
14023;BMP180;7086;48.116;11.580;2023-04-15T08:52:32;94196.00;;;18.80
14023;BMP180;7086;48.116;11.580;2023-04-15T08:54:59;94236.00;;;18.60
14023;BMP180;7086;48.116;11.580;2023-04-15T08:57:28;94233.00;;;18.50
14023;BMP180;7086;48.116;11.580;2023-04-15T08:59:55;94203.00;;;18.30
14023;BMP180;7086;48.116;11.580;2023-04-15T09:02:23;94240.00;;;18.20
14023;BMP180;7086;48.116;11.580;2023-04-15T09:04:50;94188.00;;;18.00
14023;BMP180;7086;48.116;11.580;2023-04-15T09:07:16;94236.00;;;17.90
14023;BMP180;7086;48.116;11.580;2023-04-15T09:09:45;94237.00;;;17.70
14023;BMP180;7086;48.116;11.580;2023-04-15T09:12:12;94213.00;;;17.70
14023;BMP180;7086;48.116;11.580;2023-04-15T09:14:39;94241.00;;;17.70
14023;BMP180;7086;48.116;11.580;2023-04-15T09:17:09;94234.00;;;17.60
14023;BMP180;7086;48.116;11.580;2023-04-15T09:19:36;94255.00;;;17.60
14023;BMP180;7086;48.116;11.580;2023-04-15T09:22:03;94244.00;;;17.60
14023;BMP180;7086;48.116;11.580;2023-04-15T09:24:35;94248.00;;;17.50
14023;BMP180;7086;48.116;11.580;2023-04-15T09:27:05;94262.00;;;17.50
14023;BMP180;7086;48.116;11.580;2023-04-15T09:29:32;94264.00;;;17.50
14023;BMP180;7086;48.116;11.580;2023-04-15T09:32:09;94282.00;;;17.50
14023;BMP180;7086;48.116;11.580;2023-04-15T09:34:36;94270.00;;;17.50
14023;BMP180;7086;48.116;11.580;2023-04-15T09:37:03;94258.00;;;17.60
14023;BMP180;7086;48.116;11.580;2023-04-15T09:39:44;94264.00;;;17.50
14023;BMP180;7086;48.116;11.580;2023-04-15T09:42:14;94265.00;;;17.60
14023;BMP180;7086;48.116;11.580;2023-04-15T09:44:42;94267.00;;;17.60
14023;BMP180;7086;48.116;11.580;2023-04-15T09:47:09;94264.00;;;17.60
14023;BMP180;7086;48.116;11.580;2023-04-15T09:49:35;94268.00;;;17.60
14023;BMP180;7086;48.116;11.580;2023-04-15T09:52:02;94267.00;;;17.50
14023;BMP180;7086;48.116;11.580;2023-04-15T09:54:34;94242.00;;;17.50
14023;BMP180;7086;48.116;11.580;2023-04-15T09:57:05;94274.00;;;17.50
14023;BMP180;7086;48.116;11.580;2023-04-15T09:59:33;94259.00;;;17.40
14023;BMP180;7086;48.116;11.580;2023-04-15T10:02:03;94279.00;;;17.40
14023;BMP180;7086;48.116;11.580;2023-04-15T10:04:32;94286.00;;;17.20
14023;BMP180;7086;48.116;11.580;2023-04-15T10:07:02;94284.00;;;17.30
14023;BMP180;7086;48.116;11.580;2023-04-15T10:09:30;94282.00;;;17.20
14023;BMP180;7086;48.116;11.580;2023-04-15T10:11:57;94280.00;;;17.10
14023;BMP180;7086;48.116;11.580;2023-04-15T10:14:27;94278.00;;;16.90
14023;BMP180;7086;48.116;11.580;2023-04-15T10:17:00;94259.00;;;16.90
14023;BMP180;7086;48.116;11.580;2023-04-15T10:19:30;94273.00;;;16.80
14023;BMP180;7086;48.116;11.580;2023-04-15T10:21:57;94254.00;;;16.80
14023;BMP180;7086;48.116;11.580;2023-04-15T10:24:24;94281.00;;;16.80
14023;BMP180;7086;48.116;11.580;2023-04-15T10:26:52;94276.00;;;16.70
14023;BMP180;7086;48.116;11.580;2023-04-15T10:29:19;94253.00;;;16.70
14023;BMP180;7086;48.116;11.580;2023-04-15T10:31:47;94279.00;;;16.70
14023;BMP180;7086;48.116;11.580;2023-04-15T10:34:15;94296.00;;;16.80
14023;BMP180;7086;48.116;11.580;2023-04-15T10:36:42;94284.00;;;16.80
14023;BMP180;7086;48.116;11.580;2023-04-15T10:39:39;94293.00;;;16.80
14023;BMP180;7086;48.116;11.580;2023-04-15T10:42:07;94297.00;;;16.80
14023;BMP180;7086;48.116;11.580;2023-04-15T10:44:35;94286.00;;;16.80
14023;BMP180;7086;48.116;11.580;2023-04-15T10:47:09;94290.00;;;16.80
14023;BMP180;7086;48.116;11.580;2023-04-15T10:49:44;94296.00;;;16.90
14023;BMP180;7086;48.116;11.580;2023-04-15T10:52:11;94288.00;;;16.90
14023;BMP180;7086;48.116;11.580;2023-04-15T10:54:38;94298.00;;;17.00
14023;BMP180;7086;48.116;11.580;2023-04-15T10:57:14;94298.00;;;17.10
14023;BMP180;7086;48.116;11.580;2023-04-15T11:00:10;94299.00;;;17.10
14023;BMP180;7086;48.116;11.580;2023-04-15T11:02:45;94288.00;;;17.10
14023;BMP180;7086;48.116;11.580;2023-04-15T11:05:15;94305.00;;;17.10
14023;BMP180;7086;48.116;11.580;2023-04-15T11:07:53;94280.00;;;17.10
14023;BMP180;7086;48.116;11.580;2023-04-15T11:10:51;94301.00;;;17.10
14023;BMP180;7086;48.116;11.580;2023-04-15T11:13:23;94297.00;;;17.10
14023;BMP180;7086;48.116;11.580;2023-04-15T11:15:56;94305.00;;;17.10
14023;BMP180;7086;48.116;11.580;2023-04-15T11:18:26;94302.00;;;17.10
14023;BMP180;7086;48.116;11.580;2023-04-15T11:20:58;94299.00;;;17.10
14023;BMP180;7086;48.116;11.580;2023-04-15T11:23:31;94261.00;;;17.10
14023;BMP180;7086;48.116;11.580;2023-04-15T11:25:59;94302.00;;;17.10
14023;BMP180;7086;48.116;11.580;2023-04-15T11:28:27;94301.00;;;17.10
14023;BMP180;7086;48.116;11.580;2023-04-15T11:30:55;94292.00;;;17.10
14023;BMP180;7086;48.116;11.580;2023-04-15T11:33:22;94306.00;;;17.00
14023;BMP180;7086;48.116;11.580;2023-04-15T11:35:51;94324.00;;;17.00
14023;BMP180;7086;48.116;11.580;2023-04-15T11:38:20;94286.00;;;16.90
14023;BMP180;7086;48.116;11.580;2023-04-15T11:40:48;94318.00;;;16.80
14023;BMP180;7086;48.116;11.580;2023-04-15T11:43:17;94318.00;;;16.60
14023;BMP180;7086;48.116;11.580;2023-04-15T11:45:50;94321.00;;;16.40
14023;BMP180;7086;48.116;11.580;2023-04-15T11:48:18;94306.00;;;16.30
14023;BMP180;7086;48.116;11.580;2023-04-15T11:50:45;94324.00;;;16.20
14023;BMP180;7086;48.116;11.580;2023-04-15T11:53:19;94317.00;;;15.90
14023;BMP180;7086;48.116;11.580;2023-04-15T11:55:48;94320.00;;;15.90
14023;BMP180;7086;48.116;11.580;2023-04-15T11:58:18;94327.00;;;15.80
14023;BMP180;7086;48.116;11.580;2023-04-15T12:00:47;94316.00;;;15.80
14023;BMP180;7086;48.116;11.580;2023-04-15T12:03:20;94320.00;;;15.70
14023;BMP180;7086;48.116;11.580;2023-04-15T12:06:14;94322.00;;;15.60
14023;BMP180;7086;48.116;11.580;2023-04-15T12:08:51;94322.00;;;15.60
14023;BMP180;7086;48.116;11.580;2023-04-15T12:11:18;94286.00;;;15.60
14023;BMP180;7086;48.116;11.580;2023-04-15T12:13:46;94329.00;;;15.60
14023;BMP180;7086;48.116;11.580;2023-04-15T12:16:16;94333.00;;;15.60
14023;BMP180;7086;48.116;11.580;2023-04-15T12:18:44;94340.00;;;15.60
14023;BMP180;7086;48.116;11.580;2023-04-15T12:21:12;94346.00;;;15.60
14023;BMP180;7086;48.116;11.580;2023-04-15T12:23:39;94345.00;;;15.60
14023;BMP180;7086;48.116;11.580;2023-04-15T12:26:14;94341.00;;;15.50
14023;BMP180;7086;48.116;11.580;2023-04-15T12:28:41;94333.00;;;15.70
14023;BMP180;7086;48.116;11.580;2023-04-15T12:31:08;94342.00;;;15.70
14023;BMP180;7086;48.116;11.580;2023-04-15T12:33:36;94355.00;;;15.80
14023;BMP180;7086;48.116;11.580;2023-04-15T12:36:04;94350.00;;;15.80
14023;BMP180;7086;48.116;11.580;2023-04-15T12:38:31;94353.00;;;15.90
14023;BMP180;7086;48.116;11.580;2023-04-15T12:40:58;94348.00;;;16.00
14023;BMP180;7086;48.116;11.580;2023-04-15T12:43:26;94355.00;;;16.10
14023;BMP180;7086;48.116;11.580;2023-04-15T12:45:53;94358.00;;;16.10
14023;BMP180;7086;48.116;11.580;2023-04-15T12:48:20;94352.00;;;16.20
14023;BMP180;7086;48.116;11.580;2023-04-15T12:50:47;94339.00;;;16.20
14023;BMP180;7086;48.116;11.580;2023-04-15T12:53:14;94363.00;;;16.20
14023;BMP180;7086;48.116;11.580;2023-04-15T12:55:41;94370.00;;;16.20
14023;BMP180;7086;48.116;11.580;2023-04-15T12:58:08;94377.00;;;16.30
14023;BMP180;7086;48.116;11.580;2023-04-15T13:00:37;94364.00;;;16.30
14023;BMP180;7086;48.116;11.580;2023-04-15T13:03:04;94369.00;;;16.30
14023;BMP180;7086;48.116;11.580;2023-04-15T13:05:31;94354.00;;;16.20
14023;BMP180;7086;48.116;11.580;2023-04-15T13:07:58;94329.00;;;16.20
14023;BMP180;7086;48.116;11.580;2023-04-15T13:10:25;94380.00;;;16.20
14023;BMP180;7086;48.116;11.580;2023-04-15T13:12:52;94360.00;;;16.10
14023;BMP180;7086;48.116;11.580;2023-04-15T13:15:21;94380.00;;;16.00
14023;BMP180;7086;48.116;11.580;2023-04-15T13:17:49;94396.00;;;15.90
14023;BMP180;7086;48.116;11.580;2023-04-15T13:20:16;94389.00;;;15.80
14023;BMP180;7086;48.116;11.580;2023-04-15T13:22:43;94376.00;;;15.80
14023;BMP180;7086;48.116;11.580;2023-04-15T13:25:10;94364.00;;;15.70
14023;BMP180;7086;48.116;11.580;2023-04-15T13:27:38;94387.00;;;15.70
14023;BMP180;7086;48.116;11.580;2023-04-15T13:30:05;94406.00;;;15.60
14023;BMP180;7086;48.116;11.580;2023-04-15T13:32:32;94380.00;;;15.60
14023;BMP180;7086;48.116;11.580;2023-04-15T13:35:02;94421.00;;;15.50
14023;BMP180;7086;48.116;11.580;2023-04-15T13:37:32;94340.00;;;15.00
14023;BMP180;7086;48.116;11.580;2023-04-15T13:39:59;94394.00;;;15.40
14023;BMP180;7086;48.116;11.580;2023-04-15T13:42:26;94411.00;;;15.30
14023;BMP180;7086;48.116;11.580;2023-04-15T13:44:52;94389.00;;;15.30
14023;BMP180;7086;48.116;11.580;2023-04-15T13:47:20;94410.00;;;15.20
14023;BMP180;7086;48.116;11.580;2023-04-15T13:49:46;94427.00;;;15.20
14023;BMP180;7086;48.116;11.580;2023-04-15T13:52:14;94415.00;;;15.20
14023;BMP180;7086;48.116;11.580;2023-04-15T13:54:41;94433.00;;;15.20
14023;BMP180;7086;48.116;11.580;2023-04-15T13:57:08;94429.00;;;15.10
14023;BMP180;7086;48.116;11.580;2023-04-15T13:59:35;94435.00;;;15.00
14023;BMP180;7086;48.116;11.580;2023-04-15T14:02:02;94436.00;;;14.90
14023;BMP180;7086;48.116;11.580;2023-04-15T14:04:29;94462.00;;;14.90
14023;BMP180;7086;48.116;11.580;2023-04-15T14:06:56;94440.00;;;14.80
14023;BMP180;7086;48.116;11.580;2023-04-15T14:09:25;94447.00;;;14.70
14023;BMP180;7086;48.116;11.580;2023-04-15T14:11:52;94445.00;;;14.70
14023;BMP180;7086;48.116;11.580;2023-04-15T14:14:19;94454.00;;;14.70